Time;durP1;ratioP1;P1;durP2;ratioP2;P2;SDS_P1;SDS_P2;PMS_P1;PMS_P2;Temp;Humidity;BMP_temperature;BMP_pressure;BME280_temperature;BME280_humidity;BME280_pressure;Samples;Min_cycle;Max_cycle;Signal;HPM_P1;HPM_P2
2024/01/06 05:22:33;;;;;;;2.92;1.88;;;;;;;4.88;100.00;99253.13;5130132;27;20116;-38
2024/01/06 05:24:58;;;;;;;3.03;1.63;;;;;;;4.86;100.00;99246.38;5130198;28;20032;-35
2024/01/06 05:27:23;;;;;;;3.42;1.92;;;;;;;4.82;100.00;99247.69;5129792;28;20047;-36
2024/01/06 05:29:49;;;;;;;3.08;2.03;;;;;;;4.78;100.00;99249.00;5130180;27;20039;-41
2024/01/06 05:32:16;;;;;;;3.70;1.90;;;;;;;4.86;100.00;99254.31;5130122;28;20109;-35
2024/01/06 05:34:41;;;;;;;5.22;2.08;;;;;;;4.67;100.00;99250.13;5130111;27;20057;-36
2024/01/06 05:37:06;;;;;;;3.03;2.08;;;;;;;4.82;100.00;99255.59;5129730;28;20451;-39
2024/01/06 05:39:32;;;;;;;4.72;1.70;;;;;;;4.82;100.00;99253.78;5130145;27;20027;-35
2024/01/06 05:41:57;;;;;;;3.60;1.83;;;;;;;4.88;100.00;99255.78;5129859;28;20060;-39
2024/01/06 05:44:23;;;;;;;2.40;1.60;;;;;;;4.94;100.00;99262.22;5129866;28;20445;-40
2024/01/06 05:46:48;;;;;;;5.18;1.85;;;;;;;4.95;100.00;99260.41;5129569;27;20036;-35
2024/01/06 05:49:14;;;;;;;4.63;1.80;;;;;;;4.99;100.00;99267.03;5129798;28;20035;-34
2024/01/06 05:51:44;;;;;;;1.33;1.17;;;;;;;4.83;100.00;99267.84;5129647;28;20032;-39
2024/01/06 05:54:10;;;;;;;3.00;1.63;;;;;;;4.97;100.00;99275.13;5129861;28;20044;-36
2024/01/06 05:56:35;;;;;;;2.58;1.67;;;;;;;4.83;100.00;99273.94;5129241;28;20069;-37
2024/01/06 05:59:02;;;;;;;3.65;1.83;;;;;;;4.88;100.00;99279.53;5129663;27;20040;-34
2024/01/06 06:01:28;;;;;;;1.98;1.63;;;;;;;4.86;100.00;99281.50;5129478;28;20043;-36
2024/01/06 06:03:53;;;;;;;4.68;1.83;;;;;;;4.92;100.00;99290.59;5129638;28;20110;-38
2024/01/06 06:06:18;;;;;;;5.60;1.63;;;;;;;4.92;100.00;99287.16;5129150;27;20037;-35
2024/01/06 06:08:44;;;;;;;3.42;1.33;;;;;;;4.99;100.00;99286.34;5129398;27;20051;-34
2024/01/06 06:11:13;;;;;;;2.30;1.40;;;;;;;4.94;100.00;99293.91;5129353;28;20394;-35
2024/01/06 06:13:40;;;;;;;3.55;1.75;;;;;;;5.00;100.00;99293.25;5129346;28;20490;-39
2024/01/06 06:16:07;;;;;;;5.50;1.58;;;;;;;5.05;100.00;99306.00;5128989;28;20036;-35
2024/01/06 06:18:33;;;;;;;2.45;1.50;;;;;;;5.05;100.00;99304.19;5129416;27;20466;-34
2024/01/06 06:20:59;;;;;;;3.25;1.58;;;;;;;5.07;100.00;99310.09;5128884;28;20081;-38
2024/01/06 06:23:25;;;;;;;3.70;1.60;;;;;;;5.02;100.00;99315.06;5129150;28;20043;-35
2024/01/06 06:25:51;;;;;;;1.90;1.58;;;;;;;5.05;100.00;99325.28;5128736;28;20494;-34
2024/01/06 06:28:16;;;;;;;2.25;1.67;;;;;;;5.01;100.00;99318.66;5128905;28;20049;-38
2024/01/06 06:30:43;;;;;;;4.28;1.52;;;;;;;5.09;100.00;99325.81;5128933;28;20034;-36
2024/01/06 06:33:08;;;;;;;2.15;1.50;;;;;;;5.12;100.00;99326.31;5119540;28;20035;-37
2024/01/06 06:35:33;;;;;;;2.63;1.50;;;;;;;5.05;100.00;99330.56;5115016;28;20130;-40
2024/01/06 06:37:59;;;;;;;1.85;1.40;;;;;;;5.17;100.00;99329.28;5114819;28;20038;-36
2024/01/06 06:40:24;;;;;;;2.53;1.75;;;;;;;5.15;100.00;99338.34;5114924;28;20513;-34
2024/01/06 06:42:50;;;;;;;3.20;1.52;;;;;;;5.13;100.00;99332.41;5114989;28;20165;-39
2024/01/06 06:45:15;;;;;;;3.22;1.70;;;;;;;5.17;100.00;99336.38;5114860;28;20134;-35
2024/01/06 06:47:40;;;;;;;2.83;1.83;;;;;;;5.21;100.00;99335.06;5114293;28;20058;-35
2024/01/06 06:50:06;;;;;;;1.88;1.30;;;;;;;5.16;100.00;99340.84;5114812;28;20063;-39
2024/01/06 06:52:31;;;;;;;1.77;1.60;;;;;;;5.15;100.00;99339.19;5114797;28;20035;-35
2024/01/06 06:54:57;;;;;;;3.28;1.38;;;;;;;5.19;100.00;99344.97;5113594;28;20449;-37
2024/01/06 06:57:23;;;;;;;2.83;1.70;;;;;;;5.22;100.00;99347.31;5114308;28;20043;-35
2024/01/06 06:59:49;;;;;;;3.88;1.58;;;;;;;5.27;100.00;99352.91;5114651;28;20119;-36
2024/01/06 07:02:15;;;;;;;1.90;1.48;;;;;;;5.15;100.00;99359.47;5114574;28;20122;-36
2024/01/06 07:04:40;;;;;;;2.45;1.42;;;;;;;5.24;100.00;99369.09;5114383;28;20046;-39
2024/01/06 07:07:05;;;;;;;3.50;1.98;;;;;;;5.19;100.00;99368.72;5114189;28;20040;-34
2024/01/06 07:09:31;;;;;;;3.08;1.48;;;;;;;5.17;100.00;99368.06;5114536;28;20062;-38
2024/01/06 07:11:57;;;;;;;4.50;1.70;;;;;;;5.17;100.00;99373.34;5114479;28;20551;-39
2024/01/06 07:14:22;;;;;;;4.03;1.67;;;;;;;5.21;100.00;99371.19;5114491;28;20059;-37
2024/01/06 07:16:48;;;;;;;5.20;2.45;;;;;;;5.23;100.00;99380.63;5114221;28;20545;-35
2024/01/06 07:19:13;;;;;;;4.78;1.60;;;;;;;5.35;100.00;99387.28;5114344;28;20489;-35
2024/01/06 07:21:38;;;;;;;2.85;1.60;;;;;;;5.23;100.00;99387.72;5114116;28;20080;-39
2024/01/06 07:24:04;;;;;;;3.85;1.60;;;;;;;5.25;100.00;99388.38;5112825;28;20483;-37
2024/01/06 07:26:29;;;;;;;3.50;1.70;;;;;;;5.40;100.00;99386.78;5113586;28;20039;-34
2024/01/06 07:28:55;;;;;;;4.90;1.67;;;;;;;5.31;100.00;99388.59;5113591;28;20047;-34
2024/01/06 07:31:20;;;;;;;3.08;1.77;;;;;;;7.54;100.00;99390.66;5112925;28;20126;-39
2024/01/06 07:33:46;;;;;;;4.38;2.40;;;;;;;12.53;100.00;99397.97;5113852;28;20039;-38
2024/01/06 07:36:11;;;;;;;5.25;1.60;;;;;;;14.44;100.00;99390.97;5113831;28;20042;-35
2024/01/06 07:38:37;;;;;;;6.28;2.13;;;;;;;13.91;98.11;99395.91;5113700;28;20483;-38
2024/01/06 07:41:04;;;;;;;3.10;1.60;;;;;;;14.41;89.63;99399.47;5113979;28;20073;-34
2024/01/06 07:43:30;;;;;;;4.88;1.90;;;;;;;13.77;81.96;99398.66;5113751;28;20450;-35
2024/01/06 07:45:55;;;;;;;2.30;1.55;;;;;;;14.71;81.48;99391.59;5113015;28;20096;-36
2024/01/06 07:48:21;;;;;;;2.13;1.52;;;;;;;14.34;80.77;99399.53;5113752;28;20031;-41
2024/01/06 07:50:46;;;;;;;2.63;1.58;;;;;;;14.42;78.51;99401.09;5113768;28;20043;-37
2024/01/06 07:53:13;;;;;;;3.50;2.05;;;;;;;9.88;75.19;99405.41;5113976;28;20035;-39
2024/01/06 07:55:39;;;;;;;1.75;1.50;;;;;;;6.93;94.39;99409.97;5113596;28;20551;-42
2024/01/06 07:58:05;;;;;;;2.33;1.67;;;;;;;6.50;100.00;99414.66;5113453;28;20138;-39
2024/01/06 08:00:30;;;;;;;2.45;1.90;;;;;;;6.24;100.00;99422.78;5113590;28;20141;-36
2024/01/06 08:02:56;;;;;;;2.70;1.58;;;;;;;6.29;100.00;99422.28;5113470;28;20035;-36
2024/01/06 08:05:21;;;;;;;3.67;2.50;;;;;;;6.35;100.00;99427.75;5113340;28;20055;-39
2024/01/06 08:07:46;;;;;;;2.88;1.95;;;;;;;6.13;100.00;99428.38;5113122;28;20044;-34
2024/01/06 08:10:12;;;;;;;2.15;1.83;;;;;;;6.17;100.00;99433.19;5113291;28;20035;-34
2024/01/06 08:12:37;;;;;;;2.53;1.85;;;;;;;6.06;100.00;99427.41;5113386;28;20437;-38
2024/01/06 08:15:04;;;;;;;3.17;2.42;;;;;;;5.95;100.00;99429.38;5113287;28;20110;-41
2024/01/06 08:17:30;;;;;;;4.45;2.25;;;;;;;6.05;100.00;99437.16;5112988;27;20483;-39
2024/01/06 08:19:55;;;;;;;4.43;2.40;;;;;;;5.90;100.00;99430.81;5113213;28;20125;-39
2024/01/06 08:22:20;;;;;;;4.55;2.05;;;;;;;5.96;100.00;99430.22;5111611;28;20044;-36
2024/01/06 08:24:47;;;;;;;3.90;2.00;;;;;;;5.91;100.00;99435.16;5113043;28;20118;-37
2024/01/06 08:27:12;;;;;;;3.58;2.45;;;;;;;5.93;100.00;99435.81;5112854;28;20112;-39
2024/01/06 08:29:38;;;;;;;5.93;2.47;;;;;;;5.86;100.00;99446.16;5113050;28;20039;-37
2024/01/06 08:32:04;;;;;;;2.67;2.10;;;;;;;5.92;100.00;99448.19;5112927;28;20039;-40
2024/01/06 08:34:29;;;;;;;3.08;2.10;;;;;;;5.94;100.00;99450.69;5112896;28;20046;-36
2024/01/06 08:36:55;;;;;;;3.83;2.35;;;;;;;5.91;100.00;99457.13;5112657;28;20209;-34
2024/01/06 08:39:22;;;;;;;2.92;2.10;;;;;;;5.85;100.00;99451.63;5112803;28;20055;-38
2024/01/06 08:41:47;;;;;;;5.45;2.42;;;;;;;5.93;100.00;99455.16;5112784;28;20044;-35
2024/01/06 08:44:13;;;;;;;2.90;2.20;;;;;;;6.02;100.00;99457.81;5112808;28;20031;-34
2024/01/06 08:46:39;;;;;;;4.05;2.13;;;;;;;5.82;100.00;99465.19;5112450;28;20503;-35
2024/01/06 08:49:05;;;;;;;3.28;2.00;;;;;;;5.87;100.00;99463.72;5112669;28;20051;-38
2024/01/06 08:51:30;;;;;;;3.38;2.10;;;;;;;5.85;100.00;99467.50;5112697;28;20032;-39
2024/01/06 08:53:56;;;;;;;3.17;1.60;;;;;;;5.71;100.00;99467.13;5111830;28;20039;-38
2024/01/06 08:56:22;;;;;;;4.22;2.20;;;;;;;5.70;100.00;99469.94;5093371;28;20043;-38
2024/01/06 08:58:47;;;;;;;5.22;2.30;;;;;;;5.65;100.00;99470.41;5110908;28;20158;-37
2024/01/06 09:01:16;;;;;;;3.47;1.98;;;;;;;5.87;100.00;99469.00;5093595;28;20130;-34
2024/01/06 09:03:41;;;;;;;4.65;2.15;;;;;;;5.85;100.00;99470.13;5110696;28;20043;-36
2024/01/06 09:06:07;;;;;;;2.95;2.00;;;;;;;5.76;100.00;99473.75;5111536;28;20126;-38
2024/01/06 09:08:32;;;;;;;3.13;2.50;;;;;;;5.96;100.00;99478.63;5112049;28;20031;-39
2024/01/06 09:10:58;;;;;;;5.53;2.80;;;;;;;5.89;100.00;99474.13;5111953;28;20122;-37
2024/01/06 09:13:24;;;;;;;5.35;2.72;;;;;;;5.62;100.00;99473.38;5111990;28;20054;-34
2024/01/06 09:15:51;;;;;;;3.72;2.40;;;;;;;5.62;100.00;99478.66;5111885;28;20042;-35
2024/01/06 09:18:16;;;;;;;4.50;2.03;;;;;;;5.67;100.00;99479.03;5108959;28;20032;-38
2024/01/06 09:20:42;;;;;;;2.92;2.38;;;;;;;5.79;100.00;99478.69;5111606;28;20050;-34
2024/01/06 09:23:07;;;;;;;3.22;2.28;;;;;;;5.75;100.00;99478.22;5111744;28;20388;-34
2024/01/06 09:25:32;;;;;;;3.58;2.35;;;;;;;5.76;100.00;99479.03;5111692;28;20035;-35
2024/01/06 09:27:59;;;;;;;3.90;2.90;;;;;;;5.81;100.00;99474.09;5111575;28;20039;-35
2024/01/06 09:30:25;;;;;;;2.92;2.25;;;;;;;5.64;100.00;99474.03;5111743;28;20047;-37
2024/01/06 09:32:51;;;;;;;4.22;2.38;;;;;;;5.66;100.00;99489.72;5111722;28;20042;-36
2024/01/06 09:35:16;;;;;;;5.57;2.50;;;;;;;5.76;100.00;99484.31;5111646;28;20035;-41
2024/01/06 09:37:41;;;;;;;2.70;2.20;;;;;;;5.86;100.00;99487.63;5111333;28;20057;-35
2024/01/06 09:40:13;;;;;;;3.38;2.63;;;;;;;5.91;100.00;99493.31;5111690;28;20118;-35
2024/01/06 09:42:38;;;;;;;3.75;2.72;;;;;;;5.95;100.00;99492.84;5109121;28;20718;-35
2024/01/06 09:45:04;;;;;;;3.88;2.97;;;;;;;5.80;100.00;99493.56;5111695;28;20039;-35
2024/01/06 09:47:34;;;;;;;3.97;2.50;;;;;;;5.82;100.00;99499.53;5111255;28;20071;-45
2024/01/06 09:50:03;;;;;;;3.63;2.50;;;;;;;5.95;100.00;99500.75;5109182;28;20027;-44
2024/01/06 09:52:32;;;;;;;3.40;2.28;;;;;;;5.96;100.00;99501.59;5111639;28;20059;-45
2024/01/06 09:55:00;;;;;;;3.38;2.95;;;;;;;5.96;100.00;99504.22;5107622;28;20070;-38
2024/01/06 09:57:26;;;;;;;;;;;;;;;6.20;100.00;99500.81;5111674;28;20036;-37
2024/01/06 09:59:52;;;;;;;4.35;2.50;;;;;;;6.13;100.00;99503.28;5111997;28;19947;-33
2024/01/06 10:02:18;;;;;;;3.92;2.50;;;;;;;6.06;100.00;99502.25;5111885;28;20094;-36
2024/01/06 10:04:44;;;;;;;3.92;2.75;;;;;;;6.04;100.00;99503.41;5111756;28;20521;-36
2024/01/06 10:07:13;;;;;;;4.32;2.83;;;;;;;6.15;100.00;99501.31;5111737;28;20396;-35
2024/01/06 10:09:38;;;;;;;3.97;3.05;;;;;;;6.18;100.00;99497.50;5115824;28;20510;-38
2024/01/06 10:12:04;;;;;;;4.32;2.90;;;;;;;6.15;100.00;99503.94;5115714;28;20036;-36
2024/01/06 10:14:29;;;;;;;4.55;3.00;;;;;;;6.38;100.00;99498.84;5115685;28;20042;-36
2024/01/06 10:16:55;;;;;;;3.03;2.65;;;;;;;6.53;100.00;99496.38;5115208;28;20035;-41
2024/01/06 10:19:20;;;;;;;5.78;2.47;;;;;;;6.59;100.00;99508.94;5114124;28;20062;-38
2024/01/06 10:21:46;;;;;;;4.30;3.00;;;;;;;6.55;100.00;99504.97;5115334;28;20157;-37
2024/01/06 10:24:12;;;;;;;3.80;2.78;;;;;;;6.36;100.00;99506.13;5115426;28;20031;-36
2024/01/06 10:26:38;;;;;;;2.97;2.53;;;;;;;6.27;100.00;99506.28;5115125;28;20035;-39
2024/01/06 10:29:04;;;;;;;4.10;2.53;;;;;;;6.38;100.00;99505.94;5115346;28;20035;-39
2024/01/06 10:31:30;;;;;;;3.08;2.47;;;;;;;6.30;100.00;99500.66;5115078;28;20027;-38
2024/01/06 10:33:55;;;;;;;2.50;2.08;;;;;;;6.62;100.00;99505.97;5115066;28;20043;-39
2024/01/06 10:36:23;;;;;;;3.90;2.38;;;;;;;6.38;100.00;99506.75;5114438;28;20517;-37
2024/01/06 10:38:49;;;;;;;3.97;2.70;;;;;;;6.51;100.00;99503.63;5114887;28;20034;-35
2024/01/06 10:41:16;;;;;;;2.97;2.20;;;;;;;6.54;100.00;99503.31;5111913;28;20411;-37
2024/01/06 10:43:43;;;;;;;3.38;2.50;;;;;;;6.58;100.00;99509.91;5114746;28;20036;-35
2024/01/06 10:46:13;;;;;;;3.30;2.53;;;;;;;6.57;100.00;99507.44;5114273;28;20062;-36
2024/01/06 10:48:42;;;;;;;3.28;2.58;;;;;;;6.60;100.00;99510.59;5112526;28;20510;-34
2024/01/06 10:51:08;;;;;;;3.70;2.50;;;;;;;6.69;100.00;99504.31;5114569;28;20035;-38
2024/01/06 10:53:39;;;;;;;4.10;2.58;;;;;;;6.91;100.00;99509.91;5111710;28;20031;-36
2024/01/06 10:56:09;;;;;;;2.92;2.60;;;;;;;6.67;100.00;99511.59;5114190;28;20066;-37
2024/01/06 10:58:42;;;;;;;2.75;2.40;;;;;;;6.79;100.00;99510.25;5111272;28;20133;-36
2024/01/06 11:01:12;;;;;;;4.30;2.50;;;;;;;6.87;100.00;99505.94;5111739;28;20066;-38
2024/01/06 11:03:39;;;;;;;3.92;2.53;;;;;;;6.84;100.00;99508.91;5113049;28;20390;-35
2024/01/06 11:06:11;;;;;;;3.22;2.33;;;;;;;6.79;100.00;99502.31;5113301;28;20498;-36
2024/01/06 11:08:49;;;;;;;4.05;2.30;;;;;;;6.46;100.00;99500.69;5108415;28;20039;-39
2024/01/06 11:11:16;;;;;;;4.57;2.58;;;;;;;6.39;100.00;99497.88;5111067;28;20081;-36
2024/01/06 11:13:45;;;;;;;2.50;2.22;;;;;;;6.39;100.00;99497.88;5112367;28;20054;-39
2024/01/06 11:16:10;;;;;;;3.90;2.38;;;;;;;6.63;100.00;99498.84;5113640;28;20100;-37
2024/01/06 11:18:40;;;;;;;3.03;2.50;;;;;;;6.55;100.00;99498.84;5113616;28;20441;-40
2024/01/06 11:21:28;;;;;;;2.72;2.13;;;;;;;6.66;100.00;99504.66;5113757;28;20575;-35
2024/01/06 11:24:06;;;;;;;4.70;2.72;;;;;;;6.67;100.00;99493.06;5113631;28;20031;-36
2024/01/06 11:26:31;;;;;;;3.17;2.58;;;;;;;6.60;100.00;99492.06;5113481;28;20038;-37
2024/01/06 11:28:58;;;;;;;3.63;2.72;;;;;;;6.65;100.00;99496.84;5113616;28;20031;-38
2024/01/06 11:31:28;;;;;;;4.33;2.50;;;;;;;6.78;100.00;99497.16;5113806;28;20475;-40
2024/01/06 11:33:54;;;;;;;3.28;2.38;;;;;;;6.64;100.00;99501.31;5113660;28;20050;-39
2024/01/06 11:36:20;;;;;;;2.40;2.20;;;;;;;6.43;100.00;99495.69;5113343;28;20390;-37
2024/01/06 11:38:50;;;;;;;5.55;2.95;;;;;;;6.43;100.00;99491.22;5113382;27;20035;-35
2024/01/06 11:41:48;;;;;;;3.95;2.45;;;;;;;6.66;100.00;99490.59;5113721;28;20478;-35
2024/01/06 11:44:18;;;;;;;3.50;2.80;;;;;;;6.42;100.00;99494.88;5113877;28;20046;-36
2024/01/06 11:46:45;;;;;;;4.03;2.65;;;;;;;6.54;100.00;99495.38;5112948;28;20020;-34
2024/01/06 11:49:12;;;;;;;3.67;2.45;;;;;;;6.39;100.00;99492.56;5113884;28;20039;-34
2024/01/06 11:51:37;;;;;;;3.40;2.53;;;;;;;6.39;100.00;99491.72;5113867;28;20046;-35
2024/01/06 11:54:03;;;;;;;3.70;2.30;;;;;;;6.20;100.00;99488.41;5113718;28;20043;-39
2024/01/06 11:56:29;;;;;;;3.15;2.63;;;;;;;6.28;100.00;99486.78;5113372;28;20047;-40
2024/01/06 11:58:55;;;;;;;4.15;2.70;;;;;;;6.34;100.00;99491.41;5112466;28;20055;-34
2024/01/06 12:01:20;;;;;;;4.05;2.40;;;;;;;6.38;100.00;99485.59;5113480;28;20035;-34
2024/01/06 12:03:46;;;;;;;2.97;2.67;;;;;;;6.51;100.00;99482.47;5113579;28;20067;-34
2024/01/06 12:06:12;;;;;;;4.78;2.30;;;;;;;6.52;100.00;99486.78;5113132;28;20086;-36
2024/01/06 12:08:37;;;;;;;2.50;2.30;;;;;;;6.54;100.00;99482.16;5113306;28;20043;-36
2024/01/06 12:11:03;;;;;;;3.05;2.50;;;;;;;6.37;100.00;99483.13;5113225;28;20034;-40
2024/01/06 12:13:29;;;;;;;3.40;2.10;;;;;;;6.47;100.00;99483.81;5113325;28;20035;-42
2024/01/06 12:15:55;;;;;;;2.72;2.22;;;;;;;6.52;100.00;99486.78;5112943;28;20495;-37
2024/01/06 12:18:20;;;;;;;2.92;2.30;;;;;;;6.38;100.00;99479.50;5113236;28;20430;-35
2024/01/06 12:20:46;;;;;;;4.32;2.75;;;;;;;6.38;100.00;99477.66;5113089;28;20512;-35
2024/01/06 12:23:11;;;;;;;3.58;3.10;;;;;;;6.35;100.00;99478.00;5113161;28;20067;-38
2024/01/06 12:25:38;;;;;;;4.35;2.70;;;;;;;6.40;100.00;99472.22;5111775;28;20072;-37
2024/01/06 12:28:05;;;;;;;3.42;2.97;;;;;;;6.36;100.00;99470.91;5112892;28;20096;-38
2024/01/06 12:30:31;;;;;;;4.60;3.13;;;;;;;6.27;100.00;99474.53;5112596;28;20122;-37
2024/01/06 12:32:56;;;;;;;3.80;3.13;;;;;;;6.19;100.00;99473.56;5113016;28;20070;-37
2024/01/06 12:35:22;;;;;;;4.22;3.20;;;;;;;6.24;100.00;99473.84;5112941;28;20513;-36
2024/01/06 12:37:48;;;;;;;3.85;2.72;;;;;;;6.27;100.00;99471.91;5112846;28;20517;-35
2024/01/06 12:40:16;;;;;;;6.13;3.10;;;;;;;6.31;100.00;99476.69;5112900;28;20036;-39
2024/01/06 12:42:42;;;;;;;4.50;3.03;;;;;;;6.22;100.00;99475.84;5112750;28;20043;-39
2024/01/06 12:45:09;;;;;;;3.30;2.90;;;;;;;6.27;100.00;99472.72;5112724;28;20088;-37
2024/01/06 12:47:35;;;;;;;5.53;3.00;;;;;;;6.21;100.00;99474.19;5112468;28;20035;-35
2024/01/06 12:50:01;;;;;;;6.60;3.20;;;;;;;6.31;100.00;99475.84;5111386;28;20342;-38
2024/01/06 12:52:26;;;;;;;4.07;2.85;;;;;;;6.15;100.00;99479.31;5112753;28;20403;-36
2024/01/06 12:54:52;;;;;;;5.85;3.63;;;;;;;6.12;100.00;99475.16;5112539;28;20511;-36
2024/01/06 12:57:18;;;;;;;4.22;2.97;;;;;;;5.95;100.00;99474.31;5112217;28;20039;-42
2024/01/06 12:59:43;;;;;;;4.95;2.97;;;;;;;6.16;100.00;99473.84;5112550;28;20043;-35
2024/01/06 13:02:08;;;;;;;4.63;3.60;;;;;;;6.22;100.00;99472.38;5112323;28;20043;-39
2024/01/06 13:04:34;;;;;;;4.55;2.90;;;;;;;5.99;100.00;99473.00;5112553;28;20072;-42
2024/01/06 13:07:00;;;;;;;3.70;2.80;;;;;;;6.24;100.00;99473.84;5112163;27;20165;-42
2024/01/06 13:09:26;;;;;;;4.13;2.78;;;;;;;6.18;100.00;99479.81;5112172;28;20506;-37
2024/01/06 13:11:51;;;;;;;4.85;3.35;;;;;;;6.19;100.00;99470.91;5111895;28;20036;-36
2024/01/06 13:14:17;;;;;;;3.97;2.58;;;;;;;6.32;100.00;99480.97;5111758;28;20028;-36
2024/01/06 13:16:43;;;;;;;4.10;3.00;;;;;;;6.17;100.00;99486.09;5111553;28;20051;-37
2024/01/06 13:19:09;;;;;;;3.85;3.03;;;;;;;6.21;100.00;99478.66;5111915;28;20119;-36
2024/01/06 13:21:35;;;;;;;4.68;3.03;;;;;;;6.43;100.00;99479.81;5111616;28;20165;-38
2024/01/06 13:24:04;;;;;;;4.43;3.05;;;;;;;6.41;100.00;99484.47;5111886;28;20106;-44
2024/01/06 13:26:31;;;;;;;4.20;3.13;;;;;;;6.48;100.00;99486.28;5109171;28;20034;-44
2024/01/06 13:28:56;;;;;;;5.22;3.28;;;;;;;6.48;100.00;99482.81;5111840;28;20035;-42
2024/01/06 13:31:22;;;;;;;4.82;4.15;;;;;;;6.42;100.00;99486.13;5112048;28;20372;-45
2024/01/06 13:33:47;;;;;;;6.30;3.45;;;;;;;6.43;100.00;99488.59;5111987;28;20043;-45
2024/01/06 13:36:12;;;;;;;4.68;3.80;;;;;;;6.40;100.00;99488.09;5112024;28;20039;-44
2024/01/06 13:38:38;;;;;;;4.97;4.03;;;;;;;6.37;100.00;99496.34;5112243;28;20024;-42
2024/01/06 13:41:04;;;;;;;7.53;3.92;;;;;;;6.47;100.00;99497.03;5112057;28;20081;-45
2024/01/06 13:43:31;;;;;;;4.32;3.30;;;;;;;6.32;100.00;99491.56;5114627;28;20490;-45
2024/01/06 13:45:57;;;;;;;7.03;3.80;;;;;;;6.33;100.00;99495.06;5115946;28;20059;-44
2024/01/06 13:48:22;;;;;;;6.43;3.38;;;;;;;6.20;100.00;99499.00;5116170;28;20446;-43
2024/01/06 13:50:48;;;;;;;6.10;3.00;;;;;;;6.39;100.00;99499.66;5116225;27;20552;-44
2024/01/06 13:53:14;;;;;;;4.22;3.42;;;;;;;6.39;100.00;99494.38;5116074;28;20042;-44
2024/01/06 13:55:40;;;;;;;5.25;3.47;;;;;;;6.36;100.00;99500.81;5115967;28;20378;-42
2024/01/06 13:58:05;;;;;;;5.25;3.28;;;;;;;6.44;100.00;99505.28;5115295;28;20036;-45
2024/01/06 14:00:31;;;;;;;3.90;3.33;;;;;;;6.26;100.00;99497.53;5115509;28;20485;-43
2024/01/06 14:02:56;;;;;;;5.47;3.55;;;;;;;6.16;100.00;99508.25;5115583;28;20039;-45
2024/01/06 14:05:22;;;;;;;8.38;3.75;;;;;;;6.17;100.00;99503.78;5115283;28;20494;-44
2024/01/06 14:07:50;;;;;;;5.10;3.08;;;;;;;6.14;100.00;99515.50;5114017;28;20110;-45
2024/01/06 14:10:16;;;;;;;4.47;3.53;;;;;;;6.22;100.00;99507.59;5115347;28;20036;-43
2024/01/06 14:12:41;;;;;;;5.53;3.55;;;;;;;6.27;100.00;99509.75;5115251;28;20101;-44
2024/01/06 14:15:08;;;;;;;5.20;3.78;;;;;;;6.13;100.00;99505.06;5115240;28;20039;-42
2024/01/06 14:17:33;;;;;;;4.22;3.60;;;;;;;6.32;100.00;99506.59;5114963;28;20040;-41
2024/01/06 14:19:59;;;;;;;4.80;3.53;;;;;;;6.27;100.00;99515.03;5115646;28;20039;-41
2024/01/06 14:22:26;;;;;;;5.13;3.50;;;;;;;6.11;100.00;99515.81;5115375;28;20422;-46
2024/01/06 14:24:51;;;;;;;6.07;3.70;;;;;;;6.28;100.00;99514.03;5115470;28;20035;-45
2024/01/06 14:27:17;;;;;;;4.45;3.38;;;;;;;6.26;100.00;99513.41;5115086;28;20518;-43
2024/01/06 14:29:42;;;;;;;4.43;3.60;;;;;;;6.17;100.00;99515.19;5115456;28;20426;-45
2024/01/06 14:32:08;;;;;;;6.35;3.53;;;;;;;5.96;100.00;99517.44;5114924;28;20028;-45
2024/01/06 14:34:34;;;;;;;4.47;3.55;;;;;;;6.11;100.00;99525.56;5114848;28;20291;-45
2024/01/06 14:37:00;;;;;;;4.72;3.40;;;;;;;6.09;100.00;99523.09;5114601;28;20110;-45
2024/01/06 14:39:25;;;;;;;5.22;3.17;;;;;;;6.11;100.00;99531.69;5114755;28;20120;-45
2024/01/06 14:41:51;;;;;;;4.97;3.47;;;;;;;6.18;100.00;99529.22;5113746;28;20510;-44
2024/01/06 14:44:19;;;;;;;4.40;3.80;;;;;;;6.10;100.00;99532.69;5113681;28;20061;-46
2024/01/06 14:46:50;;;;;;;;;;;;;;;6.14;100.00;99530.56;5113827;28;20085;-45
2024/01/06 14:49:16;;;;;;;5.15;3.97;;;;;;;6.07;100.00;99535.66;5111398;28;19937;-43
2024/01/06 14:51:42;;;;;;;5.15;3.75;;;;;;;6.01;100.00;99531.03;5113639;28;20479;-43
2024/01/06 14:54:08;;;;;;;7.80;4.00;;;;;;;6.03;100.00;99530.84;5112934;27;20063;-43
2024/01/06 14:56:38;;;;;;;5.18;3.72;;;;;;;6.12;100.00;99535.16;5113840;28;20537;-45
2024/01/06 14:59:03;;;;;;;5.88;4.00;;;;;;;6.20;100.00;99538.66;5114720;28;20039;-43
2024/01/06 15:01:29;;;;;;;5.70;3.97;;;;;;;6.13;100.00;99544.75;5113051;28;20031;-45
2024/01/06 15:03:54;;;;;;;7.10;3.75;;;;;;;6.28;100.00;99548.44;5114272;28;20394;-45
2024/01/06 15:06:20;;;;;;;5.18;4.20;;;;;;;6.27;100.00;99548.59;5113959;28;20040;-44
2024/01/06 15:08:45;;;;;;;4.60;3.80;;;;;;;6.31;100.00;99548.09;5114120;28;20453;-45
2024/01/06 15:11:10;;;;;;;5.22;3.95;;;;;;;6.33;100.00;99550.59;5114156;28;20039;-45
2024/01/06 15:13:36;;;;;;;6.43;4.20;;;;;;;6.12;100.00;99558.97;5114092;28;20143;-44
2024/01/06 15:16:02;;;;;;;7.18;4.20;;;;;;;6.15;100.00;99559.47;5112591;28;20024;-45
2024/01/06 15:18:27;;;;;;;6.88;3.83;;;;;;;6.16;100.00;99563.78;5113963;28;20104;-45
2024/01/06 15:20:53;;;;;;;6.18;4.07;;;;;;;6.07;100.00;99561.28;5114047;28;20028;-45
2024/01/06 15:23:19;;;;;;;5.53;4.28;;;;;;;6.04;100.00;99559.78;5113601;28;20040;-45
2024/01/06 15:25:45;;;;;;;6.18;4.18;;;;;;;6.18;100.00;99569.72;5113760;28;20118;-44
2024/01/06 15:28:10;;;;;;;5.70;3.78;;;;;;;6.17;100.00;99562.78;5113540;28;20502;-45
2024/01/06 15:30:36;;;;;;;5.47;3.75;;;;;;;6.03;100.00;99563.41;5113958;28;20406;-45
2024/01/06 15:33:01;;;;;;;5.68;4.18;;;;;;;6.08;100.00;99563.75;5113800;28;20110;-45
2024/01/06 15:35:26;;;;;;;4.95;3.67;;;;;;;6.09;100.00;99565.41;5113706;27;20428;-45
2024/01/06 15:37:52;;;;;;;4.40;3.80;;;;;;;5.97;100.00;99572.81;5113337;28;20088;-46
2024/01/06 15:40:17;;;;;;;5.07;3.78;;;;;;;6.09;100.00;99570.69;5113451;28;20027;-45
2024/01/06 15:42:43;;;;;;;6.45;4.07;;;;;;;6.08;100.00;99573.50;5113191;28;20565;-44
2024/01/06 15:45:09;;;;;;;6.65;4.90;;;;;;;5.88;100.00;99575.56;5113051;28;20498;-43
2024/01/06 15:47:35;;;;;;;5.28;4.75;;;;;;;5.87;100.00;99565.97;5112755;28;20038;-45
2024/01/06 15:50:00;;;;;;;6.18;4.25;;;;;;;5.87;100.00;99568.63;5113185;28;20126;-43
2024/01/06 15:52:26;;;;;;;5.57;4.15;;;;;;;5.87;100.00;99579.19;5113218;28;20498;-45
2024/01/06 15:54:52;;;;;;;6.97;4.15;;;;;;;5.82;100.00;99577.00;5111086;28;20114;-45
2024/01/06 15:57:17;;;;;;;7.20;4.65;;;;;;;5.86;100.00;99569.56;5111193;28;20037;-45
2024/01/06 15:59:43;;;;;;;6.25;4.15;;;;;;;5.94;100.00;99572.31;5111835;28;20024;-44
2024/01/06 16:02:09;;;;;;;6.63;4.47;;;;;;;6.03;100.00;99575.78;5113094;28;20031;-44
2024/01/06 16:04:34;;;;;;;5.88;4.30;;;;;;;5.84;100.00;99587.41;5112636;28;20080;-45
2024/01/06 16:06:59;;;;;;;6.05;3.95;;;;;;;5.77;100.00;99584.59;5112311;28;20043;-45
2024/01/06 16:09:25;;;;;;;8.20;4.35;;;;;;;5.90;100.00;99587.63;5112711;28;20118;-44
2024/01/06 16:11:58;;;;;;;6.97;4.75;;;;;;;5.91;100.00;99583.19;5112942;28;20027;-45
2024/01/06 16:14:25;;;;;;;5.93;3.95;;;;;;;5.86;100.00;99588.91;5111786;28;20032;-45
2024/01/06 16:16:52;;;;;;;5.28;4.40;;;;;;;5.76;100.00;99582.09;5112614;28;20034;-46
2024/01/06 16:19:18;;;;;;;8.00;5.00;;;;;;;5.90;100.00;99586.78;5113047;28;20028;-45
2024/01/06 16:21:43;;;;;;;7.20;5.30;;;;;;;5.88;100.00;99580.84;5112600;28;20043;-45
2024/01/06 16:24:09;;;;;;;7.72;4.82;;;;;;;5.87;100.00;99581.84;5112804;28;20028;-46
2024/01/06 16:26:34;;;;;;;5.80;4.30;;;;;;;5.91;100.00;99580.53;5112278;28;20408;-45
2024/01/06 16:29:00;;;;;;;6.68;4.90;;;;;;;5.85;100.00;99589.06;5112667;28;20035;-45
2024/01/06 16:31:25;;;;;;;6.53;4.40;;;;;;;5.91;100.00;99593.75;5112467;28;20168;-42
2024/01/06 16:33:51;;;;;;;7.50;5.68;;;;;;;6.02;100.00;99588.19;5112564;28;20067;-45
2024/01/06 16:36:16;;;;;;;7.95;4.70;;;;;;;5.86;100.00;99585.44;5112254;28;20032;-44
2024/01/06 16:38:42;;;;;;;6.40;4.82;;;;;;;5.84;100.00;99580.31;5112763;28;20039;-44
2024/01/06 16:41:07;;;;;;;8.52;4.47;;;;;;;5.93;100.00;99591.78;5112809;28;20040;-43
2024/01/06 16:43:37;;;;;;;6.10;4.80;;;;;;;5.96;100.00;99591.47;5112709;28;20051;-45
2024/01/06 16:46:04;;;;;;;6.43;4.45;;;;;;;6.02;100.00;99596.13;5112686;28;20035;-44
2024/01/06 16:48:30;;;;;;;7.47;5.00;;;;;;;5.88;100.00;99599.34;5112604;28;20122;-45
2024/01/06 16:50:55;;;;;;;5.70;4.65;;;;;;;5.83;100.00;99599.00;5112611;28;20031;-43